หน้าหลัก
METAR-TAF:

METAR-TAF

ท่าอากาศยาน :

Zielona Góra, โปแลนด์

ละติจูด: 52-08-19N, ลองจิจูด: 015-47-55E, ความสูง: 59 ม.

การสังเกตสภาพอากาศปัจจุบัน

รายงานได้ทำขึ้นเมื่อ 19 นาทีที่แล้ว ณ เวลา 03:30 UTC
ลมสงบ
อุณหภูมิ 13°C
ความชื้น 100%
ความกดอากาศ 1023 hPa
ทัศนวิสัย 10 กม. หรือมากกว่า
หมอกตื้น,

METAR: EPZG 190330Z 00000KT 9999 MIFG NSC 13/13 Q1023

เวลา: 05:49 (03:49 UTC)

การพยากรณ์

รายงานได้ทำขึ้นเมื่อ 48 นาทีที่แล้ว ณ เวลา 03:01 UTC
การพยากรณ์มีผลตั้งแต่วันที่ 19 ณ เวลา 03 UTC จนถึงวันที่ 19 ณ เวลา 12 UTC
ลม 2 นอตจากทิศทางซึ่งแปรผันได้
ทัศนวิสัย 10 กม. หรือมากกว่า
ไม่มีเมฆต่ำกว่า 1,500 ม. และไม่มีเมฆคิวมูโลนิมบัส

TAF: EPZG 190301Z 1903/1912 VRB02KT CAVOK

สังเกตการณ์สภาพอากาศและพยากรณ์อากาศของสนามบินมากกว่า 4000 แห่ง (รายงาน METAR และ TAF).

สถานีที่ดูได้จะแสดงไว้ด้วยจุดสีเหลืองและสีแดงบนแผนที่.

เลื่อนเมาส์ไปเหนือจุดเพื่อดูชื่อสถานี.

แล้วคลิกเพื่อดูสังเกตการณ์และการพยากรณ์สภาพอากาศ.

ในการเปลี่ยนแผนที่: คลิกที่ปุ่มสีเขียวที่มีกากบาทสีดำเพื่อซูมเข้า; ที่ปุ่มสีเขียวที่มีขีดเพื่อซูมออก; หรือที่ลูกศรสีเขียวเพื่อไปยังแผนที่ที่อยู่ติดกัน.


METAR-TAF: